Time;durP1;ratioP1;P1;durP2;ratioP2;P2;SDS_P1;SDS_P2;PMS_P1;PMS_P2;Temp;Humidity;BMP_temperature;BMP_pressure;BME280_temperature;BME280_humidity;BME280_pressure;Samples;Min_cycle;Max_cycle;Signal;HPM_P1;HPM_P2
2022/08/04 00:01:21;;;;;;;8.27;4.03;;;25.10;58.70;;;;;;5032462;28;20480;-73
2022/08/04 00:04:12;;;;;;;5.60;3.90;;;25.10;58.70;;;;;;5070486;28;20551;-72
2022/08/04 00:06:46;;;;;;;5.10;3.10;;;25.00;58.80;;;;;;5069053;28;20574;-73
2022/08/04 00:09:35;;;;;;;4.43;3.43;;;24.90;59.10;;;;;;5064582;28;21018;-73
2022/08/04 00:12:03;;;;;;;6.50;3.50;;;25.00;59.20;;;;;;5090118;28;20413;-72
2022/08/04 00:14:34;;;;;;;6.00;3.30;;;25.00;58.90;;;;;;5086638;28;20428;-71
2022/08/04 00:17:04;;;;;;;4.93;3.03;;;24.90;59.30;;;;;;5066850;28;20471;-73
2022/08/04 00:19:35;;;;;;;4.20;2.80;;;24.80;59.50;;;;;;5064115;28;20507;-72
2022/08/04 00:22:07;;;;;;;7.20;3.60;;;24.80;59.70;;;;;;5067760;28;20531;-72
2022/08/04 00:24:34;;;;;;;5.40;3.70;;;24.70;59.90;;;;;;5067590;28;20927;-72
2022/08/04 00:27:00;;;;;;;6.60;3.80;;;24.70;60.10;;;;;;5069410;28;20992;-73
2022/08/04 00:29:26;;;;;;;8.93;3.67;;;24.70;60.10;;;;;;5066440;28;20463;-72
2022/08/04 00:31:54;;;;;;;4.93;3.23;;;24.60;60.30;;;;;;5069437;28;20445;-73
2022/08/04 00:34:22;;;;;;;5.83;3.70;;;24.60;60.40;;;;;;5067887;28;20424;-72
2022/08/04 00:36:49;;;;;;;4.97;3.63;;;24.60;60.60;;;;;;5064258;28;20545;-71
2022/08/04 00:39:16;;;;;;;6.23;3.37;;;24.60;60.60;;;;;;5064943;28;20508;-72
2022/08/04 00:41:51;;;;;;;10.30;3.13;;;24.60;60.60;;;;;;5068086;28;21043;-73
2022/08/04 00:44:23;;;;;;;5.27;3.77;;;24.50;61.20;;;;;;5060736;28;20408;-74
2022/08/04 00:47:04;;;;;;;5.03;3.20;;;24.50;61.20;;;;;;5059469;28;20443;-74
2022/08/04 00:49:35;;;;;;;6.63;2.90;;;24.50;61.00;;;;;;5067902;28;20454;-73
2022/08/04 00:52:10;;;;;;;4.00;3.27;;;24.50;61.00;;;;;;5065727;28;20500;-72
2022/08/04 00:54:36;;;;;;;10.00;3.50;;;24.40;61.00;;;;;;5064229;28;20476;-72
2022/08/04 00:57:29;;;;;;;4.60;3.07;;;24.40;61.50;;;;;;5065269;28;20471;-73
2022/08/04 00:59:57;;;;;;;6.83;3.50;;;24.30;61.70;;;;;;5070179;28;20201;-73
2022/08/04 01:02:27;;;;;;;4.50;3.40;;;24.20;61.90;;;;;;5059491;28;20423;-72
2022/08/04 01:05:09;;;;;;;4.40;3.57;;;24.10;62.50;;;;;;5058027;28;20520;-71
2022/08/04 01:07:53;;;;;;;5.53;3.50;;;24.00;62.80;;;;;;5060091;28;20446;-73
2022/08/04 01:10:26;;;;;;;4.40;3.23;;;24.00;62.90;;;;;;5067683;28;20503;-73
2022/08/04 01:12:54;;;;;;;5.00;3.60;;;24.10;62.60;;;;;;5068980;28;20418;-71
2022/08/04 01:15:39;;;;;;;4.30;3.17;;;24.00;62.60;;;;;;5068432;28;20455;-72
2022/08/04 01:18:07;;;;;;;5.43;3.27;;;24.00;62.60;;;;;;5063753;28;20466;-72
2022/08/04 01:20:38;;;;;;;6.53;4.20;;;24.00;62.60;;;;;;5071869;28;20427;-73
2022/08/04 01:23:34;;;;;;;5.47;3.17;;;24.10;62.60;;;;;;5070144;28;20439;-71
2022/08/04 01:26:33;;;;;;;9.70;3.80;;;24.10;62.00;;;;;;5073203;28;20428;-72
2022/08/04 01:29:08;;;;;;;7.90;4.17;;;24.10;62.60;;;;;;5067413;28;20462;-72
2022/08/04 01:31:51;;;;;;;7.10;3.90;;;24.10;62.80;;;;;;5073624;28;20414;-72
2022/08/04 01:34:20;;;;;;;6.20;3.50;;;24.10;62.80;;;;;;5070964;28;20762;-73
2022/08/04 01:37:10;;;;;;;6.67;3.73;;;24.10;62.60;;;;;;5070858;28;20470;-74
2022/08/04 01:39:48;;;;;;;5.60;3.27;;;24.10;62.80;;;;;;5069320;28;20461;-73
2022/08/04 01:42:18;;;;;;;8.93;3.87;;;24.00;62.80;;;;;;5070876;28;20440;-74
2022/08/04 01:45:28;;;;;;;5.67;3.40;;;24.00;63.20;;;;;;5589659;22;20553;-72
2022/08/04 01:47:56;;;;;;;8.60;4.03;;;24.00;63.10;;;;;;5110053;27;20965;-71
2022/08/04 01:50:25;;;;;;;9.43;3.83;;;24.00;63.10;;;;;;5116954;27;20432;-72
2022/08/04 01:52:53;;;;;;;5.17;3.53;;;23.90;63.20;;;;;;5118924;27;20424;-73
2022/08/04 01:55:20;;;;;;;8.60;3.50;;;23.90;62.80;;;;;;5107666;27;20464;-73
2022/08/04 01:57:50;;;;;;;6.30;3.70;;;23.90;62.60;;;;;;5109712;27;20886;-73
2022/08/04 02:00:27;;;;;;;5.57;3.70;;;23.90;62.90;;;;;;5117097;27;20429;-73
2022/08/04 02:02:55;;;;;;;8.70;3.33;;;23.90;62.90;;;;;;5111471;27;20419;-72
2022/08/04 02:05:23;;;;;;;6.17;3.93;;;23.80;62.90;;;;;;5113734;27;20489;-74
2022/08/04 02:08:08;;;;;;;6.03;3.70;;;23.80;62.80;;;;;;5112992;27;20412;-73
2022/08/04 02:10:48;;;;;;;6.30;3.73;;;23.80;62.90;;;;;;5089761;27;20472;-71
2022/08/04 02:13:28;;;;;;;3.97;3.10;;;23.80;62.90;;;;;;5116764;27;20424;-73
2022/08/04 02:16:23;;;;;;;3.80;3.27;;;23.70;63.10;;;;;;5088440;28;20519;-73
2022/08/04 02:19:04;;;;;;;4.67;3.23;;;23.70;63.40;;;;;;5116837;27;20423;-73
2022/08/04 02:28:38;;;;;;;9.20;3.50;;;23.50;63.20;;;;;;5104800;27;20471;-72
2022/08/04 02:31:07;;;;;;;4.43;3.03;;;23.40;63.90;;;;;;5093224;28;20578;-72
2022/08/04 02:33:39;;;;;;;4.00;2.90;;;23.50;64.20;;;;;;5117457;27;20419;-71
2022/08/04 02:36:34;;;;;;;4.40;3.30;;;23.40;64.20;;;;;;5101091;27;20508;-71
2022/08/04 02:39:02;;;;;;;5.30;3.43;;;23.50;64.20;;;;;;5105858;27;20422;-72
2022/08/04 02:41:29;;;;;;;6.00;3.50;;;23.50;64.10;;;;;;5112435;27;20416;-73
2022/08/04 02:43:59;;;;;;;3.93;3.20;;;23.50;64.10;;;;;;5118386;27;20423;-73
2022/08/04 02:46:26;;;;;;;3.97;3.80;;;23.40;64.50;;;;;;5113285;27;20957;-72
2022/08/04 02:48:54;;;;;;;4.33;3.50;;;23.30;65.00;;;;;;5118060;27;21220;-71
2022/08/04 02:51:33;;;;;;;6.90;3.27;;;23.30;65.10;;;;;;5100236;27;20456;-73
2022/08/04 02:54:01;;;;;;;5.83;3.57;;;23.30;65.10;;;;;;5110854;27;21241;-74
2022/08/04 02:56:30;;;;;;;4.30;3.10;;;23.30;65.40;;;;;;5103463;27;20533;-72
2022/08/04 02:59:08;;;;;;;5.50;3.70;;;23.30;65.40;;;;;;5123797;27;20412;-72
2022/08/04 03:01:34;;;;;;;4.97;3.10;;;23.30;65.40;;;;;;5122825;27;20414;-73
2022/08/04 03:04:09;;;;;;;5.03;3.40;;;23.20;65.70;;;;;;5136243;27;20443;-71
2022/08/04 03:07:00;;;;;;;9.90;3.37;;;23.20;66.00;;;;;;5124494;28;20599;-72
2022/08/04 03:09:44;;;;;;;5.60;3.50;;;23.10;66.10;;;;;;5114102;28;20432;-73
2022/08/04 03:12:44;;;;;;;6.20;3.67;;;23.10;66.40;;;;;;5127857;27;20415;-72
2022/08/04 03:15:26;;;;;;;4.47;3.60;;;23.00;66.90;;;;;;5088543;28;20471;-74
2022/08/04 03:18:13;;;;;;;4.10;3.40;;;23.00;67.00;;;;;;5113044;28;20470;-70
2022/08/04 03:21:03;;;;;;;5.53;3.20;;;22.90;67.00;;;;;;5119362;27;20425;-74
2022/08/04 03:24:18;;;;;;;4.87;3.47;;;22.90;67.20;;;;;;5113135;27;20419;-73
2022/08/04 03:27:05;;;;;;;5.17;3.90;;;22.80;67.50;;;;;;5039183;28;20536;-73
2022/08/04 03:29:46;;;;;;;7.20;3.47;;;22.70;68.00;;;;;;5043019;28;20417;-73
2022/08/04 03:32:23;;;;;;;5.13;3.47;;;22.60;68.20;;;;;;5050177;28;20423;-73
2022/08/04 03:34:51;;;;;;;4.10;3.30;;;22.60;68.00;;;;;;5047953;28;20453;-74
2022/08/04 03:37:47;;;;;;;5.70;3.80;;;22.60;68.00;;;;;;5046330;28;20431;-74
2022/08/04 03:40:35;;;;;;;4.97;3.57;;;22.60;68.20;;;;;;5046975;28;20523;-72
2022/08/04 03:43:15;;;;;;;5.17;3.87;;;22.60;67.90;;;;;;5049669;28;20423;-71
2022/08/04 03:46:12;;;;;;;3.80;3.30;;;22.60;67.30;;;;;;5047187;28;20548;-74
2022/08/04 03:48:50;;;;;;;5.30;2.93;;;22.60;67.20;;;;;;5048858;28;20525;-73
2022/08/04 03:55:08;;;;;;;3.87;3.23;;;22.50;67.70;;;;;;5042566;28;20543;-73
2022/08/04 03:57:34;;;;;;;4.90;3.30;;;22.40;67.90;;;;;;5049280;28;20427;-73
2022/08/04 04:00:12;;;;;;;7.47;3.40;;;22.40;68.80;;;;;;5060597;28;20417;-74
2022/08/04 04:02:56;;;;;;;5.23;3.50;;;22.40;68.80;;;;;;5107408;28;20181;-75
2022/08/04 04:05:42;;;;;;;5.77;3.47;;;22.40;68.60;;;;;;5102446;27;20498;-73
2022/08/04 04:08:20;;;;;;;17.57;10.83;;;22.40;68.80;;;;;;5121373;27;20499;-73
2022/08/04 04:10:54;;;;;;;10.27;6.20;;;22.40;68.90;;;;;;5119287;27;20414;-73
2022/08/04 04:13:23;;;;;;;7.07;4.20;;;22.40;68.80;;;;;;5113812;28;20795;-72
2022/08/04 04:16:15;;;;;;;5.03;3.43;;;22.40;68.80;;;;;;5115027;27;20935;-74
2022/08/04 04:18:51;;;;;;;6.00;3.17;;;22.40;68.60;;;;;;5107128;27;20431;-72
2022/08/04 04:21:51;;;;;;;4.93;3.67;;;22.40;68.50;;;;;;5096219;27;20429;-73
2022/08/04 04:24:58;;;;;;;5.27;3.57;;;22.40;68.50;;;;;;5065933;28;20470;-73
2022/08/04 04:27:48;;;;;;;4.67;3.83;;;22.40;68.30;;;;;;5116022;27;20882;-73
2022/08/04 04:30:29;;;;;;;7.13;3.03;;;22.40;68.00;;;;;;5108633;28;20812;-73
2022/08/04 04:33:07;;;;;;;4.93;3.23;;;22.40;67.50;;;;;;5121108;27;21110;-73
2022/08/04 04:35:38;;;;;;;4.20;3.17;;;22.30;67.30;;;;;;5110392;27;20994;-72
2022/08/04 04:38:25;;;;;;;6.93;2.80;;;22.40;67.30;;;;;;5109994;27;20760;-72
2022/08/04 04:40:56;;;;;;;6.30;3.20;;;22.40;67.50;;;;;;5119515;27;20463;-73
2022/08/04 04:44:05;;;;;;;4.33;3.67;;;22.40;67.70;;;;;;5099769;27;20423;-73
2022/08/04 04:46:43;;;;;;;4.77;3.63;;;22.50;67.70;;;;;;5101722;28;20788;-72
2022/08/04 04:49:32;;;;;;;4.37;3.23;;;22.50;67.70;;;;;;5113879;27;20786;-72
2022/08/04 04:52:26;;;;;;;4.80;3.17;;;22.60;67.30;;;;;;5120375;28;20443;-71
2022/08/04 04:55:26;;;;;;;4.30;3.47;;;22.60;67.00;;;;;;5113359;28;20455;-73
2022/08/04 04:57:57;;;;;;;5.07;3.20;;;22.60;67.00;;;;;;5106983;28;20416;-73
2022/08/04 05:00:32;;;;;;;5.10;3.20;;;22.60;67.00;;;;;;5110473;28;20752;-72
2022/08/04 05:02:57;;;;;;;9.47;3.57;;;22.70;66.90;;;;;;5117807;28;20461;-71
2022/08/04 05:05:33;;;;;;;5.07;3.07;;;22.80;66.70;;;;;;5111021;28;20456;-73
2022/08/04 05:08:35;;;;;;;4.40;3.33;;;22.80;66.70;;;;;;5120575;28;20181;-72
2022/08/04 05:11:15;;;;;;;4.90;3.27;;;22.90;66.40;;;;;;5109898;28;20500;-71
2022/08/04 05:13:47;;;;;;;5.50;3.40;;;22.90;66.70;;;;;;5115259;28;20465;-72
2022/08/04 05:16:19;;;;;;;5.50;3.23;;;22.90;66.70;;;;;;5106595;28;20485;-73
2022/08/04 05:18:50;;;;;;;5.10;3.20;;;23.00;66.90;;;;;;5124104;28;20414;-73
2022/08/04 05:21:18;;;;;;;4.40;2.90;;;23.10;66.40;;;;;;5094886;28;20451;-72
2022/08/04 05:23:50;;;;;;;4.60;3.30;;;23.10;65.30;;;;;;5115626;28;20411;-73
2022/08/04 05:26:21;;;;;;;5.07;3.07;;;23.10;65.10;;;;;;5107867;28;20465;-72
2022/08/04 05:28:56;;;;;;;8.43;3.30;;;23.20;65.40;;;;;;5113735;28;20935;-72
2022/08/04 05:31:31;;;;;;;5.83;3.50;;;23.30;65.00;;;;;;5111836;28;21274;-73
2022/08/04 05:34:07;;;;;;;5.53;3.10;;;23.30;64.70;;;;;;5118387;28;20420;-70
2022/08/04 05:36:46;;;;;;;4.87;3.33;;;23.40;63.80;;;;;;5110714;28;21023;-71
2022/08/04 05:39:25;;;;;;;4.73;3.30;;;23.50;63.70;;;;;;5105350;28;21215;-72
2022/08/04 05:41:51;;;;;;;5.33;3.53;;;23.50;63.50;;;;;;5120639;28;20404;-72
2022/08/04 05:44:20;;;;;;;5.30;3.27;;;23.50;63.20;;;;;;5108730;28;20403;-72
2022/08/04 05:46:54;;;;;;;4.10;3.63;;;23.60;63.40;;;;;;5119952;28;20948;-72
2022/08/04 05:49:22;;;;;;;5.30;3.30;;;23.70;63.40;;;;;;5110141;28;20424;-73
2022/08/04 05:51:49;;;;;;;8.33;3.40;;;23.80;63.20;;;;;;5102786;28;20871;-72
2022/08/04 05:54:16;;;;;;;5.13;3.37;;;23.80;63.20;;;;;;5108927;28;20422;-72
2022/08/04 05:56:42;;;;;;;4.00;2.90;;;23.90;62.50;;;;;;5114878;28;20458;-72
2022/08/04 05:59:11;;;;;;;5.80;3.10;;;24.00;62.80;;;;;;5116762;28;20423;-72
2022/08/04 06:01:38;;;;;;;5.70;4.43;;;24.00;62.60;;;;;;5119328;28;20554;-73
2022/08/04 06:04:05;;;;;;;3.67;3.33;;;24.10;62.30;;;;;;5112572;27;20785;-71
2022/08/04 06:06:31;;;;;;;6.77;4.00;;;24.20;61.90;;;;;;5116838;27;20946;-72
2022/08/04 06:08:58;;;;;;;4.57;3.33;;;24.30;61.70;;;;;;5103370;27;20415;-72
2022/08/04 06:11:27;;;;;;;6.90;4.30;;;24.30;61.70;;;;;;5109563;27;20424;-73
2022/08/04 06:13:57;;;;;;;5.63;3.50;;;24.30;61.60;;;;;;5119364;27;20932;-72
2022/08/04 06:16:27;;;;;;;7.40;3.80;;;24.40;61.60;;;;;;5103689;27;20568;-72
2022/08/04 06:18:56;;;;;;;6.53;4.10;;;24.40;61.90;;;;;;5102585;27;20416;-73
2022/08/04 06:21:25;;;;;;;8.00;4.03;;;24.50;61.70;;;;;;5115161;27;21203;-73
2022/08/04 06:23:54;;;;;;;7.97;4.53;;;24.60;61.50;;;;;;5113993;27;20864;-73
2022/08/04 06:26:22;;;;;;;4.70;3.53;;;24.60;61.30;;;;;;5114271;27;20528;-72
2022/08/04 06:28:50;;;;;;;6.07;3.67;;;24.70;61.20;;;;;;5131776;27;20414;-73
2022/08/04 06:31:31;;;;;;;5.17;3.53;;;24.90;60.70;;;;;;5118662;27;20985;-72
2022/08/04 06:34:01;;;;;;;5.27;3.70;;;25.00;60.60;;;;;;5101079;27;20784;-72
2022/08/04 06:36:29;;;;;;;4.43;3.33;;;25.10;60.40;;;;;;5116153;27;20592;-74
2022/08/04 06:38:56;;;;;;;7.60;3.90;;;25.10;60.30;;;;;;5122311;27;20470;-73
2022/08/04 06:41:22;;;;;;;9.33;3.60;;;25.20;59.90;;;;;;5112711;27;20426;-72
2022/08/04 06:43:49;;;;;;;6.27;3.90;;;25.30;59.30;;;;;;5099970;28;20414;-73
2022/08/04 06:46:15;;;;;;;7.80;3.50;;;25.40;59.20;;;;;;5110997;27;20213;-72
2022/08/04 06:48:42;;;;;;;4.80;4.10;;;25.50;58.40;;;;;;5120022;27;20445;-73
2022/08/04 06:51:10;;;;;;;6.10;3.73;;;25.60;58.10;;;;;;5117161;27;20908;-71
2022/08/04 06:53:35;;;;;;;7.67;4.87;;;25.70;57.80;;;;;;5120856;27;20446;-73
2022/08/04 06:56:01;;;;;;;10.13;4.30;;;25.70;57.60;;;;;;5113521;27;20843;-72
2022/08/04 06:58:31;;;;;;;5.17;3.53;;;25.80;57.70;;;;;;5104028;27;20176;-72
2022/08/04 07:01:00;;;;;;;6.90;3.97;;;25.90;57.40;;;;;;5100959;27;20497;-71
2022/08/04 07:03:27;;;;;;;5.33;3.77;;;25.90;56.90;;;;;;5114848;27;20474;-73
2022/08/04 07:05:53;;;;;;;5.20;4.27;;;26.00;56.90;;;;;;5114619;27;20473;-72
2022/08/04 07:08:20;;;;;;;6.83;4.20;;;26.10;56.80;;;;;;5111993;27;20442;-72
2022/08/04 07:10:47;;;;;;;8.10;3.73;;;26.10;56.80;;;;;;5115290;27;20435;-72
2022/08/04 07:13:13;;;;;;;6.40;4.60;;;26.20;56.80;;;;;;5095495;27;20442;-75
2022/08/04 07:15:43;;;;;;;8.10;3.80;;;26.40;56.90;;;;;;5120167;27;20851;-73
2022/08/04 07:18:09;;;;;;;9.73;4.23;;;26.40;57.40;;;;;;5105895;27;20420;-72
2022/08/04 07:20:38;;;;;;;6.10;4.03;;;26.50;57.60;;;;;;5118871;27;20424;-72
2022/08/04 07:23:05;;;;;;;5.73;4.10;;;26.60;57.70;;;;;;5090417;27;20184;-73
2022/08/04 07:25:32;;;;;;;5.23;4.40;;;26.60;57.60;;;;;;5106111;27;20451;-72
2022/08/04 07:27:58;;;;;;;7.57;4.73;;;26.70;56.50;;;;;;5116372;27;20409;-73
2022/08/04 07:30:25;;;;;;;5.10;3.97;;;26.80;57.00;;;;;;5119278;27;20427;-73
2022/08/04 07:32:53;;;;;;;6.60;4.40;;;26.90;56.90;;;;;;5109035;27;20267;-72
2022/08/04 07:35:20;;;;;;;7.47;3.83;;;27.00;56.60;;;;;;5090112;28;20482;-73
2022/08/04 07:37:46;;;;;;;8.23;4.33;;;27.10;55.60;;;;;;5122416;27;20438;-73
2022/08/04 07:40:11;;;;;;;7.03;3.80;;;27.20;55.20;;;;;;5115961;28;20569;-73
2022/08/04 07:42:38;;;;;;;8.47;4.10;;;27.30;54.90;;;;;;5121364;27;20221;-72
2022/08/04 07:45:03;;;;;;;4.70;2.93;;;27.50;54.80;;;;;;5105462;27;20202;-73
2022/08/04 07:47:29;;;;;;;6.27;3.30;;;27.70;53.40;;;;;;5115072;27;20438;-74
2022/08/04 07:49:55;;;;;;;6.83;3.13;;;27.90;52.90;;;;;;5117418;27;20417;-72
2022/08/04 07:52:22;;;;;;;7.60;3.30;;;28.20;52.40;;;;;;5120283;27;20170;-73
2022/08/04 07:54:50;;;;;;;8.87;3.33;;;28.40;51.40;;;;;;5111195;27;20545;-73
2022/08/04 07:57:17;;;;;;;5.50;3.30;;;28.60;50.30;;;;;;5120262;27;20474;-73
2022/08/04 07:59:43;;;;;;;8.50;3.33;;;28.80;50.30;;;;;;5116366;27;20492;-72
2022/08/04 08:02:13;;;;;;;4.63;3.30;;;28.90;49.90;;;;;;5118804;27;20453;-73
2022/08/04 08:04:38;;;;;;;4.50;3.50;;;29.00;50.20;;;;;;5115238;27;20198;-71
2022/08/04 08:07:04;;;;;;;7.20;4.20;;;29.10;50.10;;;;;;5127368;27;20472;-74
2022/08/04 08:09:32;;;;;;;6.63;3.20;;;29.20;50.20;;;;;;5116752;27;20812;-73
2022/08/04 08:11:57;;;;;;;7.30;3.67;;;29.30;49.80;;;;;;5118119;27;20599;-73
2022/08/04 08:14:23;;;;;;;6.83;3.57;;;29.40;50.20;;;;;;5106760;28;21059;-72
2022/08/04 08:16:49;;;;;;;7.10;3.90;;;29.50;49.50;;;;;;5120160;27;20213;-74
2022/08/04 08:19:15;;;;;;;9.03;3.80;;;29.60;49.30;;;;;;5114656;27;20421;-71
2022/08/04 08:21:48;;;;;;;5.77;3.87;;;29.70;49.10;;;;;;5118245;27;20180;-73
2022/08/04 08:24:14;;;;;;;6.00;3.43;;;29.70;49.00;;;;;;5105575;27;20466;-72
2022/08/04 08:26:40;;;;;;;6.43;3.40;;;29.60;49.10;;;;;;5113884;27;21038;-72
2022/08/04 08:29:06;;;;;;;8.27;3.30;;;29.50;49.50;;;;;;5091554;27;20409;-73
2022/08/04 08:31:32;;;;;;;8.37;3.90;;;29.70;49.80;;;;;;5121412;27;21044;-73
2022/08/04 08:34:00;;;;;;;10.17;3.53;;;29.80;48.70;;;;;;5125138;27;20270;-72
2022/08/04 08:36:56;;;;;;;6.97;3.53;;;29.90;49.50;;;;;;5115695;27;20467;-73
2022/08/04 08:39:30;;;;;;;9.63;4.37;;;30.00;49.00;;;;;;5119390;27;20407;-72
2022/08/04 08:42:14;;;;;;;11.93;3.87;;;30.10;47.90;;;;;;5102282;28;20523;-72
2022/08/04 08:44:59;;;;;;;8.00;3.87;;;30.20;47.30;;;;;;5113382;27;20460;-73
2022/08/04 08:47:54;;;;;;;6.57;3.90;;;30.30;46.70;;;;;;5120502;28;20488;-72
2022/08/04 08:50:49;;;;;;;5.27;3.03;;;30.30;46.90;;;;;;5094868;28;21005;-72
2022/08/04 08:53:42;;;;;;;4.97;3.47;;;30.50;46.60;;;;;;5111093;28;20428;-72
2022/08/04 08:56:20;;;;;;;10.17;4.20;;;30.60;46.10;;;;;;5089103;28;20464;-71
2022/08/04 08:58:49;;;;;;;6.07;3.93;;;30.50;46.60;;;;;;5110806;28;20921;-73
2022/08/04 09:01:30;;;;;;;5.60;3.70;;;30.60;46.70;;;;;;5110067;28;20796;-73
2022/08/04 09:04:31;;;;;;;5.43;3.30;;;30.60;47.00;;;;;;5104239;28;20468;-73
2022/08/04 09:07:15;;;;;;;4.60;3.60;;;30.80;46.60;;;;;;5109324;28;20426;-72
2022/08/04 09:09:50;;;;;;;6.17;3.40;;;30.90;46.30;;;;;;5118206;28;20423;-72
2022/08/04 09:12:37;;;;;;;5.63;3.53;;;30.90;46.50;;;;;;5116054;28;20488;-72
2022/08/04 09:15:05;;;;;;;6.70;4.00;;;31.00;46.30;;;;;;5109261;28;20465;-73
2022/08/04 09:17:40;;;;;;;9.87;4.47;;;31.00;45.80;;;;;;5120553;28;20412;-74
2022/08/04 09:20:23;;;;;;;6.00;4.03;;;31.10;45.70;;;;;;5103561;28;20478;-73
2022/08/04 09:22:52;;;;;;;8.67;3.50;;;31.10;45.90;;;;;;5117944;28;20411;-73
2022/08/04 09:25:46;;;;;;;5.00;3.80;;;31.20;45.40;;;;;;5101745;28;20963;-74
2022/08/04 09:28:58;;;;;;;7.63;4.00;;;31.30;45.70;;;;;;5106948;28;20445;-73
2022/08/04 09:31:32;;;;;;;8.20;3.90;;;31.40;45.50;;;;;;5023171;28;20516;-73
2022/08/04 09:34:11;;;;;;;5.73;4.03;;;31.50;45.30;;;;;;5013558;28;20838;-72
2022/08/04 09:36:54;;;;;;;5.93;3.73;;;31.60;44.70;;;;;;5026116;28;20995;-72
2022/08/04 09:39:31;;;;;;;7.07;3.60;;;31.60;44.30;;;;;;5021810;28;21021;-72
2022/08/04 09:42:08;;;;;;;11.10;4.60;;;31.60;44.60;;;;;;5026873;28;20431;-73
2022/08/04 09:44:47;;;;;;;5.47;4.23;;;31.70;44.50;;;;;;5023376;28;20513;-73
2022/08/04 09:47:22;;;;;;;6.37;4.10;;;31.80;43.90;;;;;;5015573;28;20453;-73
2022/08/04 09:50:09;;;;;;;5.10;3.87;;;31.90;43.80;;;;;;5028787;28;20433;-73
2022/08/04 09:52:43;;;;;;;5.23;4.00;;;32.00;43.40;;;;;;5022136;28;20432;-73
2022/08/04 09:55:20;;;;;;;6.30;4.10;;;32.10;44.20;;;;;;5026719;28;20456;-72
2022/08/04 09:58:00;;;;;;;6.60;3.87;;;32.00;44.10;;;;;;5022832;28;20764;-73
2022/08/04 10:00:33;;;;;;;4.10;2.90;;;32.00;43.80;;;;;;5017737;28;20417;-74
2022/08/04 10:03:01;;;;;;;5.43;3.70;;;32.20;43.80;;;;;;5021805;28;20918;-73
2022/08/04 10:05:49;;;;;;;8.20;3.40;;;32.40;41.90;;;;;;5026675;28;20470;-74
2022/08/04 10:08:49;;;;;;;4.80;3.90;;;32.80;40.60;;;;;;5071532;27;20889;-74
2022/08/04 10:11:32;;;;;;;6.73;3.80;;;33.30;39.80;;;;;;5108785;27;20417;-74
2022/08/04 10:14:36;;;;;;;5.20;4.10;;;33.60;38.40;;;;;;5119529;27;20936;-73
2022/08/04 10:17:28;;;;;;;3.60;3.40;;;34.00;37.80;;;;;;5115451;27;20495;-73
2022/08/04 10:20:10;;;;;;;6.57;3.83;;;34.20;37.20;;;;;;5123721;27;20910;-73
2022/08/04 10:22:40;;;;;;;3.77;3.60;;;34.60;36.60;;;;;;5097519;28;20424;-72
2022/08/04 10:25:29;;;;;;;9.07;3.20;;;35.10;35.20;;;;;;5106283;27;20450;-74
2022/08/04 10:27:59;;;;;;;5.27;3.80;;;35.30;34.90;;;;;;5114854;27;20436;-74
2022/08/04 10:30:27;;;;;;;5.70;3.30;;;35.60;34.70;;;;;;5113364;28;20413;-72
2022/08/04 10:33:01;;;;;;;5.67;3.33;;;35.70;34.10;;;;;;5119365;27;20446;-72
2022/08/04 10:35:33;;;;;;;4.83;3.40;;;36.00;33.30;;;;;;5110636;27;20580;-72
2022/08/04 10:38:26;;;;;;;5.43;3.90;;;35.90;33.60;;;;;;5120085;27;20456;-73
2022/08/04 10:41:15;;;;;;;3.30;2.70;;;35.70;34.30;;;;;;5110742;27;20508;-74
2022/08/04 10:43:41;;;;;;;5.30;3.77;;;36.00;33.20;;;;;;5112365;28;20785;-73
2022/08/04 10:46:33;;;;;;;4.57;3.97;;;36.20;33.20;;;;;;5119515;27;20471;-73
2022/08/04 10:49:07;;;;;;;3.70;2.90;;;36.50;32.30;;;;;;5105055;27;20198;-73
2022/08/04 10:52:07;;;;;;;5.30;3.20;;;36.90;31.60;;;;;;5117873;27;20472;-72
2022/08/04 10:54:50;;;;;;;6.27;3.00;;;36.60;32.40;;;;;;5106203;27;20460;-72
2022/08/04 10:57:28;;;;;;;3.97;3.30;;;36.70;32.30;;;;;;5115688;27;20461;-74
2022/08/04 11:00:15;;;;;;;3.13;2.80;;;36.80;30.50;;;;;;5109250;27;20420;-73
2022/08/04 11:03:02;;;;;;;4.30;3.73;;;36.80;30.50;;;;;;5112339;27;20413;-74
2022/08/04 11:05:57;;;;;;;6.43;3.30;;;36.90;30.70;;;;;;5114899;27;20447;-74
2022/08/04 11:08:47;;;;;;;4.67;2.97;;;37.20;30.10;;;;;;5113729;27;20423;-74
2022/08/04 11:11:13;;;;;;;4.03;3.40;;;37.60;29.60;;;;;;5123485;27;20424;-73
2022/08/04 11:13:46;;;;;;;5.17;3.20;;;37.30;30.10;;;;;;5101566;27;20474;-73
2022/08/04 11:16:41;;;;;;;3.60;3.03;;;37.20;29.50;;;;;;5104383;27;20214;-73
2022/08/04 11:19:28;;;;;;;4.20;3.40;;;37.20;29.50;;;;;;5104621;27;20415;-73
2022/08/04 11:22:02;;;;;;;6.67;3.60;;;36.80;29.80;;;;;;5116855;27;20414;-74
2022/08/04 11:24:43;;;;;;;3.87;3.33;;;36.50;30.40;;;;;;5115767;27;20460;-73
2022/08/04 11:27:18;;;;;;;3.30;3.10;;;36.80;29.90;;;;;;5106317;27;20933;-74
2022/08/04 11:30:08;;;;;;;7.60;3.50;;;37.10;29.70;;;;;;5115480;27;21022;-74
2022/08/04 11:32:45;;;;;;;5.60;3.37;;;37.20;29.80;;;;;;5101425;27;20788;-73
2022/08/04 11:35:27;;;;;;;4.70;3.40;;;37.70;28.30;;;;;;5110357;27;20553;-73
2022/08/04 11:38:03;;;;;;;3.83;3.00;;;37.90;28.10;;;;;;5111780;27;20925;-74
2022/08/04 11:40:39;;;;;;;4.50;3.50;;;38.00;28.10;;;;;;5113116;27;20520;-72
2022/08/04 11:43:10;;;;;;;5.60;3.40;;;38.20;28.10;;;;;;5118288;27;20403;-72
2022/08/04 11:45:44;;;;;;;3.50;3.03;;;38.50;28.10;;;;;;5109378;27;20451;-72
2022/08/04 11:48:15;;;;;;;5.40;3.17;;;38.40;28.20;;;;;;5119441;27;20448;-74
2022/08/04 11:50:48;;;;;;;5.97;3.60;;;38.40;28.00;;;;;;5114675;27;20507;-74
2022/08/04 11:53:18;;;;;;;4.47;4.17;;;38.50;27.70;;;;;;5101575;28;20784;-75
2022/08/04 11:55:48;;;;;;;5.30;3.37;;;38.20;28.00;;;;;;5113738;27;20492;-74
2022/08/04 11:58:14;;;;;;;5.77;4.23;;;38.00;28.00;;;;;;5120073;27;20419;-73
2022/08/04 12:00:57;;;;;;;3.90;3.40;;;37.40;28.80;;;;;;5101711;27;20435;-74
2022/08/04 12:03:51;;;;;;;3.97;3.20;;;37.60;28.60;;;;;;5101116;27;20440;-74
2022/08/04 12:06:29;;;;;;;4.43;3.67;;;37.70;28.30;;;;;;5094382;27;20520;-72
2022/08/04 12:09:14;;;;;;;3.30;3.03;;;38.10;27.90;;;;;;5109231;27;20428;-75
2022/08/04 12:12:09;;;;;;;3.80;3.10;;;38.30;27.70;;;;;;5100990;27;20430;-75
2022/08/04 12:14:35;;;;;;;3.73;3.13;;;38.20;27.70;;;;;;5111348;27;20457;-74
2022/08/04 12:17:03;;;;;;;5.53;3.60;;;38.10;27.80;;;;;;5098233;27;20513;-75
2022/08/04 12:19:49;;;;;;;6.10;4.00;;;38.30;27.90;;;;;;5121007;27;20276;-73
2022/08/04 12:22:20;;;;;;;4.37;3.50;;;38.10;28.00;;;;;;5114241;27;20412;-73
2022/08/04 12:24:59;;;;;;;4.40;3.13;;;37.10;29.10;;;;;;5108851;27;20469;-74
2022/08/04 12:28:05;;;;;;;3.23;3.07;;;36.70;29.00;;;;;;5094273;28;20423;-74
2022/08/04 12:30:36;;;;;;;5.57;3.53;;;36.40;29.40;;;;;;5007081;28;20468;-75
2022/08/04 12:33:18;;;;;;;3.70;3.50;;;36.20;29.90;;;;;;5010090;28;20425;-73
2022/08/04 12:35:52;;;;;;;5.07;3.50;;;36.10;30.30;;;;;;5010769;28;20484;-75
2022/08/04 12:38:22;;;;;;;4.63;3.50;;;35.80;30.70;;;;;;5017056;28;20439;-74
2022/08/04 12:40:50;;;;;;;4.13;3.90;;;35.30;31.90;;;;;;5019486;28;20559;-74
2022/08/04 12:43:34;;;;;;;6.33;4.17;;;35.50;31.70;;;;;;5013012;28;20969;-74
2022/08/04 12:46:05;;;;;;;4.03;3.40;;;35.70;30.90;;;;;;5006041;28;20460;-74
2022/08/04 12:48:34;;;;;;;4.27;3.33;;;35.60;31.20;;;;;;5007996;28;20547;-75
2022/08/04 12:50:59;;;;;;;7.00;3.90;;;35.90;31.10;;;;;;4992304;28;20464;-75
2022/08/04 12:53:39;;;;;;;5.30;3.93;;;35.70;30.80;;;;;;5016209;28;20437;-75
2022/08/04 12:56:07;;;;;;;8.53;4.33;;;35.60;31.10;;;;;;5009803;28;20293;-73
2022/08/04 12:58:41;;;;;;;7.63;3.87;;;35.90;30.40;;;;;;5014158;28;21085;-73
2022/08/04 13:01:15;;;;;;;5.17;4.10;;;36.00;30.30;;;;;;5005780;28;20425;-73
2022/08/04 13:03:48;;;;;;;5.97;4.30;;;36.10;30.30;;;;;;5013726;28;20433;-73
2022/08/04 13:06:15;;;;;;;6.20;3.83;;;36.20;29.90;;;;;;5020675;28;20475;-74
2022/08/04 13:08:44;;;;;;;6.50;3.80;;;36.40;29.60;;;;;;5115450;28;20489;-73
2022/08/04 13:11:11;;;;;;;4.57;3.87;;;36.30;29.80;;;;;;5109741;28;20928;-75
2022/08/04 13:13:38;;;;;;;4.20;3.80;;;36.20;29.90;;;;;;5109686;28;20413;-74
2022/08/04 13:16:09;;;;;;;3.90;3.33;;;36.80;29.20;;;;;;5114583;27;21025;-73
2022/08/04 13:18:44;;;;;;;6.00;3.90;;;36.90;29.10;;;;;;5120881;27;20467;-74
2022/08/04 13:21:22;;;;;;;6.80;3.80;;;36.70;29.40;;;;;;5117301;27;20534;-74
2022/08/04 13:23:51;;;;;;;4.17;3.80;;;37.10;28.90;;;;;;5114632;27;20772;-74
2022/08/04 13:26:17;;;;;;;6.10;4.00;;;37.40;28.70;;;;;;5112183;27;21031;-72
2022/08/04 13:28:47;;;;;;;4.83;4.40;;;37.50;28.40;;;;;;5116180;27;20435;-74
2022/08/04 13:31:18;;;;;;;4.73;3.53;;;37.90;28.30;;;;;;5102233;28;20423;-74
2022/08/04 13:33:51;;;;;;;4.00;3.83;;;38.40;27.30;;;;;;5116947;27;20423;-74
2022/08/04 13:36:18;;;;;;;7.60;3.83;;;38.80;27.10;;;;;;5110246;27;21026;-73
2022/08/04 13:38:50;;;;;;;6.27;3.93;;;38.00;27.70;;;;;;5114094;27;20424;-75
2022/08/04 13:41:17;;;;;;;5.13;3.63;;;37.70;28.00;;;;;;5121894;27;20444;-73